Time;durP1;ratioP1;P1;durP2;ratioP2;P2;SDS_P1;SDS_P2;PMS_P1;PMS_P2;Temp;Humidity;BMP_temperature;BMP_pressure;BME280_temperature;BME280_humidity;BME280_pressure;Samples;Min_cycle;Max_cycle;Signal;HPM_P1;HPM_P2
2022/03/23 00:02:45;;;;;;;8.80;5.13;;;;;;;-1.06;59.81;99253.03;6252699;28;20246;-74
2022/03/23 00:05:47;;;;;;;7.83;5.40;;;;;;;-1.15;59.92;99251.38;6227530;28;20236;-74
2022/03/23 00:08:50;;;;;;;7.10;5.07;;;;;;;-1.21;59.99;99257.50;6245638;28;20233;-75
2022/03/23 00:11:53;;;;;;;7.70;4.47;;;;;;;-1.31;60.45;99255.84;6251519;28;20720;-74
2022/03/23 00:14:55;;;;;;;6.53;4.47;;;;;;;-1.35;60.86;99255.88;6252041;28;20337;-73
2022/03/23 00:17:57;;;;;;;5.30;4.27;;;;;;;-1.41;61.29;99245.56;6251767;28;20227;-73
2022/03/23 00:21:00;;;;;;;7.37;4.60;;;;;;;-1.48;61.66;99243.00;6234462;28;20304;-73
2022/03/23 00:24:04;;;;;;;9.70;4.37;;;;;;;-1.56;61.91;99244.78;6217245;28;20644;-74
2022/03/23 00:27:06;;;;;;;8.43;4.63;;;;;;;-1.64;62.57;99251.75;6234753;28;20551;-74
2022/03/23 00:30:10;;;;;;;6.10;3.70;;;;;;;-1.69;62.15;99245.72;6251723;28;20239;-74
2022/03/23 00:33:14;;;;;;;7.20;4.60;;;;;;;-1.71;62.52;99237.16;6251341;28;20219;-75
2022/03/23 00:36:16;;;;;;;6.63;4.30;;;;;;;-1.74;62.30;99237.16;6234213;28;20737;-74
2022/03/23 00:39:22;;;;;;;6.87;4.03;;;;;;;-1.74;62.25;99229.38;6252416;28;20706;-74
2022/03/23 00:42:24;;;;;;;6.93;4.07;;;;;;;-1.72;62.26;99229.38;6234971;28;20831;-75
2022/03/23 00:45:26;;;;;;;5.90;4.00;;;;;;;-1.72;62.24;99224.22;6230474;28;20293;-75
2022/03/23 00:48:28;;;;;;;5.37;3.90;;;;;;;-1.70;62.93;99228.50;6211482;28;20234;-75
2022/03/23 00:51:31;;;;;;;7.17;4.40;;;;;;;-1.73;63.57;99227.66;6228808;28;20228;-74
2022/03/23 00:54:34;;;;;;;7.73;4.30;;;;;;;-1.76;63.05;99225.09;6235025;28;20218;-74
2022/03/23 00:57:38;;;;;;;7.53;4.50;;;;;;;-1.74;63.15;99223.34;6233841;28;20219;-74
2022/03/23 01:00:41;;;;;;;4.57;3.70;;;;;;;-1.70;62.92;99217.31;6250728;28;20300;-75
2022/03/23 01:03:43;;;;;;;6.27;3.90;;;;;;;-1.74;63.04;99213.88;6226310;28;20228;-75
2022/03/23 01:06:46;;;;;;;5.60;3.70;;;;;;;-1.71;63.40;99218.16;6210311;28;20354;-75
2022/03/23 01:09:48;;;;;;;7.13;3.67;;;;;;;-1.76;63.25;99212.16;6210469;28;20232;-76
2022/03/23 01:12:50;;;;;;;6.93;4.17;;;;;;;-1.78;63.29;99212.16;6215276;28;20595;-75
2022/03/23 01:15:52;;;;;;;6.70;4.30;;;;;;;-1.78;63.91;99214.75;6233279;28;20768;-74
2022/03/23 01:18:54;;;;;;;7.20;4.47;;;;;;;-1.83;63.67;99208.75;6233766;28;20225;-74
2022/03/23 01:21:57;;;;;;;6.33;4.47;;;;;;;-1.84;63.58;99203.56;6217476;28;20263;-75
2022/03/23 01:24:59;;;;;;;5.87;3.80;;;;;;;-1.88;63.85;99203.59;6219276;28;20706;-73
2022/03/23 01:28:02;;;;;;;9.27;4.40;;;;;;;-1.86;64.18;99193.25;6236469;28;20257;-74
2022/03/23 01:31:05;;;;;;;6.93;4.10;;;;;;;-1.88;64.25;99192.38;6239047;28;20239;-75
2022/03/23 01:34:07;;;;;;;4.83;3.60;;;;;;;-1.91;64.39;99189.84;6241310;28;20234;-74
2022/03/23 01:37:10;;;;;;;5.70;3.43;;;;;;;-1.91;63.84;99190.69;6244022;28;20234;-76
2022/03/23 01:40:12;;;;;;;5.93;4.20;;;;;;;-1.92;64.54;99186.38;6242391;28;20230;-74
2022/03/23 01:43:14;;;;;;;7.13;3.93;;;;;;;-1.95;64.54;99188.97;6238268;28;20667;-74
2022/03/23 01:46:19;;;;;;;6.90;4.57;;;;;;;-1.92;63.41;99182.94;6226239;28;20232;-75
2022/03/23 01:49:22;;;;;;;5.07;3.60;;;;;;;-1.93;64.04;99186.41;6229292;28;20232;-75
2022/03/23 01:52:28;;;;;;;6.20;3.93;;;;;;;-1.91;63.94;99172.59;6237980;28;20231;-74
2022/03/23 01:55:30;;;;;;;8.80;4.13;;;;;;;-1.95;64.13;99182.94;6255939;28;20313;-75
2022/03/23 01:58:32;;;;;;;6.57;3.90;;;;;;;-1.96;64.33;99181.22;6229977;28;20719;-75
2022/03/23 02:01:35;;;;;;;6.83;4.00;;;;;;;-2.02;64.46;99173.53;6215726;28;20238;-75
2022/03/23 02:04:38;;;;;;;6.23;4.17;;;;;;;-2.05;64.45;99176.13;6220072;28;20713;-74
2022/03/23 02:07:40;;;;;;;5.17;3.73;;;;;;;-2.06;65.20;99175.25;6254220;28;20233;-75
2022/03/23 02:10:43;;;;;;;6.10;3.83;;;;;;;-2.05;64.99;99176.13;6237985;28;20717;-74
2022/03/23 02:13:48;;;;;;;6.90;3.80;;;;;;;-2.09;65.09;99174.41;6230604;28;20242;-73
2022/03/23 02:16:51;;;;;;;6.80;3.83;;;;;;;-2.05;64.53;99168.34;6235759;28;20233;-74
2022/03/23 02:19:54;;;;;;;5.47;3.40;;;;;;;-2.03;65.47;99174.38;6203424;28;20983;-75
2022/03/23 02:22:56;;;;;;;8.63;3.57;;;;;;;-2.03;65.53;99170.06;6225881;28;20634;-73
2022/03/23 02:26:01;;;;;;;5.13;3.00;;;;;;;-1.98;65.46;99164.84;6254601;28;20235;-75
2022/03/23 02:29:04;;;;;;;6.53;3.30;;;;;;;-2.03;65.70;99164.03;6236580;28;20431;-75
2022/03/23 02:32:07;;;;;;;5.23;3.20;;;;;;;-2.08;65.58;99156.28;6237884;28;20335;-74
2022/03/23 02:35:11;;;;;;;4.57;3.07;;;;;;;-2.11;65.64;99161.50;6254613;28;20223;-74
2022/03/23 02:38:13;;;;;;;4.43;3.00;;;;;;;-2.09;65.46;99170.09;6238439;28;20227;-74
2022/03/23 02:41:15;;;;;;;5.77;3.40;;;;;;;-2.07;65.41;99172.66;6229493;28;20247;-74
2022/03/23 02:44:18;;;;;;;5.33;3.20;;;;;;;-2.12;65.18;99169.28;6250109;28;20223;-74
2022/03/23 02:47:20;;;;;;;3.63;2.47;;;;;;;-2.22;65.47;99167.59;6236693;28;20223;-75
2022/03/23 02:50:22;;;;;;;4.07;3.00;;;;;;;-2.32;65.81;99164.22;6236755;28;20227;-73
2022/03/23 03:04:24;;;;;;;3.33;2.70;;;;;;;-2.34;65.83;99159.03;6236132;28;20231;-74
2022/03/23 03:07:26;;;;;;;4.47;3.13;;;;;;;-2.28;66.55;99159.00;6252651;28;20298;-74
2022/03/23 03:10:28;;;;;;;3.50;2.50;;;;;;;-2.27;66.39;99152.09;6253091;28;20261;-75
2022/03/23 03:13:30;;;;;;;3.17;2.87;;;;;;;-2.27;66.62;99152.97;6236192;28;20322;-75
2022/03/23 03:16:32;;;;;;;3.13;2.53;;;;;;;-2.27;66.47;99144.34;6243746;28;20229;-75
2022/03/23 03:19:37;;;;;;;4.93;3.13;;;;;;;-2.22;66.68;99147.78;6253174;28;20325;-74
2022/03/23 03:22:40;;;;;;;4.77;2.57;;;;;;;-2.22;66.66;99144.34;6253841;28;20573;-75
2022/03/23 03:25:42;;;;;;;3.47;2.50;;;;;;;-2.29;66.50;99144.34;6227894;28;20295;-75
2022/03/23 03:28:44;;;;;;;5.13;2.60;;;;;;;-2.28;66.33;99145.22;6248507;28;20227;-74
2022/03/23 03:31:46;;;;;;;3.57;2.57;;;;;;;-2.33;66.68;99144.38;6253718;28;20277;-74
2022/03/23 03:34:48;;;;;;;4.13;2.70;;;;;;;-2.36;67.03;99146.97;6228640;28;20224;-75
2022/03/23 03:37:50;;;;;;;3.87;2.73;;;;;;;-2.34;66.71;99148.69;6238416;28;20227;-73
2022/03/23 03:40:52;;;;;;;3.87;2.50;;;;;;;-2.37;66.58;99140.94;6246366;28;20407;-74
2022/03/23 03:43:54;;;;;;;3.07;2.20;;;;;;;-2.38;66.61;99140.97;6231018;28;20293;-75
2022/03/23 03:46:56;;;;;;;3.87;2.77;;;;;;;-2.35;67.18;99136.63;6236300;28;20227;-74
2022/03/23 03:49:59;;;;;;;3.70;2.73;;;;;;;-2.33;66.68;99136.63;6253225;28;20715;-74
2022/03/23 03:53:01;;;;;;;4.53;3.33;;;;;;;-2.33;66.71;99140.09;6223542;28;20634;-73
2022/03/23 03:56:04;;;;;;;3.53;2.57;;;;;;;-2.32;67.47;99135.78;6247102;28;20219;-76
2022/03/23 03:59:06;;;;;;;3.63;2.53;;;;;;;-2.35;67.65;99136.63;6228254;28;20231;-74
2022/03/23 04:02:08;;;;;;;4.50;3.07;;;;;;;-2.33;67.10;99140.09;6223257;28;20238;-74
2022/03/23 04:05:10;;;;;;;4.47;2.90;;;;;;;-2.30;67.45;99136.63;6218789;28;20317;-75
2022/03/23 04:08:12;;;;;;;4.97;2.40;;;;;;;-2.31;67.37;99140.94;6235735;28;20227;-74
2022/03/23 04:11:14;;;;;;;4.37;2.53;;;;;;;-2.28;66.87;99143.47;6238085;28;20590;-74
2022/03/23 04:14:16;;;;;;;4.17;2.70;;;;;;;-2.35;67.34;99143.53;6228211;28;20235;-74
2022/03/23 04:17:18;;;;;;;6.13;2.80;;;;;;;-2.36;67.32;99137.50;6228745;28;20718;-74
2022/03/23 04:20:22;;;;;;;3.57;2.47;;;;;;;-2.37;67.33;99138.38;6227321;28;20223;-74
2022/03/23 04:23:24;;;;;;;4.73;3.23;;;;;;;-2.37;67.77;99132.34;6228090;28;20231;-74
2022/03/23 04:26:26;;;;;;;7.00;3.40;;;;;;;-2.41;67.79;99134.09;6210823;28;20235;-74
2022/03/23 04:29:28;;;;;;;5.50;3.60;;;;;;;-2.44;67.66;99134.09;6217924;28;20714;-74
2022/03/23 04:32:30;;;;;;;6.23;4.17;;;;;;;-2.37;67.17;99133.19;6208861;28;20224;-74
2022/03/23 04:35:34;;;;;;;16.13;3.80;;;;;;;-2.38;67.33;99123.72;6228391;28;20278;-74
2022/03/23 04:38:36;;;;;;;4.50;3.23;;;;;;;-2.41;67.17;99133.25;6227867;28;20235;-74
2022/03/23 04:41:38;;;;;;;5.53;3.60;;;;;;;-2.41;67.69;99141.00;6227911;28;20262;-74
2022/03/23 04:44:39;;;;;;;4.77;3.10;;;;;;;-2.40;67.91;99133.25;6209885;28;20219;-74
2022/03/23 04:47:44;;;;;;;5.13;3.20;;;;;;;-2.41;67.24;99131.50;6220886;28;20231;-74
2022/03/23 04:50:48;;;;;;;3.43;3.13;;;;;;;-2.39;67.43;99134.06;6228485;28;20234;-74
2022/03/23 04:53:50;;;;;;;5.03;3.50;;;;;;;-2.35;67.77;99131.47;6209974;28;20224;-74
2022/03/23 04:56:52;;;;;;;4.30;3.00;;;;;;;-2.33;67.31;99141.81;6228413;28;20231;-74
2022/03/23 04:59:58;;;;;;;5.77;3.87;;;;;;;-2.31;67.66;99135.78;6227074;28;20224;-74
2022/03/23 05:03:01;;;;;;;4.30;3.20;;;;;;;-2.28;66.81;99143.47;6224940;28;20242;-73
2022/03/23 05:06:03;;;;;;;6.60;3.73;;;;;;;-2.25;67.33;99143.47;6225745;28;20731;-74
2022/03/23 05:09:05;;;;;;;4.97;3.53;;;;;;;-2.26;67.35;99136.59;6227489;28;20794;-73
2022/03/23 05:12:08;;;;;;;5.87;4.23;;;;;;;-2.24;67.46;99139.16;6202148;28;20637;-74
2022/03/23 05:15:11;;;;;;;5.03;3.80;;;;;;;-2.25;67.68;99146.06;6219173;28;20208;-74
2022/03/23 05:18:14;;;;;;;7.87;4.00;;;;;;;-2.16;67.33;99139.13;6217021;28;20213;-74
2022/03/23 05:21:16;;;;;;;5.90;3.83;;;;;;;-2.13;67.27;99136.53;6211415;28;20211;-74
2022/03/23 05:24:18;;;;;;;4.00;3.23;;;;;;;-2.14;66.81;99135.66;6226462;28;20269;-74
2022/03/23 05:27:20;;;;;;;4.73;3.30;;;;;;;-2.13;67.36;99139.09;6227425;28;20212;-74
2022/03/23 05:30:22;;;;;;;5.40;3.63;;;;;;;-2.15;67.58;99140.84;6225612;28;20223;-74
2022/03/23 05:33:24;;;;;;;5.77;3.83;;;;;;;-2.14;67.28;99143.41;6225894;28;20227;-74
2022/03/23 05:36:26;;;;;;;6.50;3.93;;;;;;;-2.09;67.80;99144.22;6225581;28;20227;-74
2022/03/23 05:39:28;;;;;;;5.53;3.47;;;;;;;-2.09;67.88;99139.06;6226107;28;20729;-74
2022/03/23 05:42:30;;;;;;;5.73;3.47;;;;;;;-2.06;67.75;99143.34;6217337;28;20228;-74
2022/03/23 05:45:32;;;;;;;6.80;3.80;;;;;;;-2.00;68.05;99151.97;6207749;28;20240;-74
2022/03/23 05:48:34;;;;;;;4.60;3.23;;;;;;;-1.92;67.73;99146.72;6207465;28;20239;-73
2022/03/23 05:51:37;;;;;;;5.53;3.50;;;;;;;-1.86;68.15;99157.00;6226256;28;20231;-73
2022/03/23 05:54:39;;;;;;;5.53;3.70;;;;;;;-1.84;67.94;99157.88;6226853;28;20227;-74
2022/03/23 05:57:41;;;;;;;6.77;3.40;;;;;;;-1.80;68.29;99153.53;6217677;28;20264;-74
2022/03/23 06:00:44;;;;;;;4.43;3.33;;;;;;;-1.77;68.21;99153.50;6222724;28;20271;-73
2022/03/23 06:03:49;;;;;;;5.83;3.47;;;;;;;-1.71;68.28;99145.72;6217355;28;20507;-74
2022/03/23 06:06:52;;;;;;;5.97;3.77;;;;;;;-1.65;68.85;99150.81;6215747;28;20367;-73
2022/03/23 06:09:54;;;;;;;5.03;3.17;;;;;;;-1.59;68.91;99156.78;6213298;28;20754;-73
2022/03/23 06:12:57;;;;;;;6.33;4.07;;;;;;;-1.50;68.54;99154.13;6251586;28;20602;-74
2022/03/23 06:15:59;;;;;;;5.30;3.93;;;;;;;-1.41;68.47;99155.81;6256175;28;20234;-74
2022/03/23 06:19:02;;;;;;;6.00;3.80;;;;;;;-1.33;68.56;99153.16;6236915;28;20242;-74
2022/03/23 06:22:05;;;;;;;13.67;5.50;;;;;;;-1.24;68.39;99160.81;6237910;28;20621;-75
2022/03/23 06:25:08;;;;;;;5.20;3.50;;;;;;;-1.15;68.52;99164.19;6236551;28;20724;-74
2022/03/23 06:28:10;;;;;;;8.00;3.70;;;;;;;-1.00;67.90;99160.59;6236436;28;20231;-75
2022/03/23 06:31:12;;;;;;;4.87;3.50;;;;;;;-0.82;67.53;99160.38;6253953;28;20231;-74
2022/03/23 06:34:14;;;;;;;5.60;3.40;;;;;;;-0.68;67.57;99169.72;6255493;28;20223;-74
2022/03/23 06:37:17;;;;;;;4.90;3.27;;;;;;;-0.60;67.77;99165.34;6237468;28;20235;-74
2022/03/23 06:40:20;;;;;;;5.33;3.50;;;;;;;-0.51;67.63;99171.25;6254661;28;20235;-72
2022/03/23 06:43:26;;;;;;;5.97;3.50;;;;;;;-0.35;66.98;99168.47;6236796;28;20694;-73
2022/03/23 06:46:28;;;;;;;4.47;3.20;;;;;;;-0.23;66.87;99163.97;6242235;28;20228;-74
2022/03/23 06:49:30;;;;;;;5.00;3.40;;;;;;;-0.11;66.79;99168.16;6230690;28;20599;-74
2022/03/23 06:52:33;;;;;;;4.50;3.00;;;;;;;0.02;66.67;99176.59;6235444;28;20238;-73
2022/03/23 06:55:36;;;;;;;4.57;3.57;;;;;;;0.19;65.83;99169.44;6235533;28;20227;-74
2022/03/23 06:58:38;;;;;;;5.20;3.33;;;;;;;0.24;66.39;99165.91;6218410;28;20231;-72
2022/03/23 07:01:40;;;;;;;4.70;3.50;;;;;;;0.40;65.79;99171.69;6239183;28;20238;-75
2022/03/23 07:04:42;;;;;;;5.07;3.57;;;;;;;0.56;65.27;99169.72;6253876;28;20235;-73
2022/03/23 07:11:05;;;;;;;5.97;3.77;;;;;;;0.87;63.83;99173.53;6250162;28;20323;-74
2022/03/23 07:14:07;;;;;;;6.23;3.37;;;;;;;1.00;63.41;99171.53;6212075;28;20247;-73
2022/03/23 07:17:09;;;;;;;4.83;3.43;;;;;;;1.17;61.98;99169.50;6249328;28;20732;-73
2022/03/23 07:20:11;;;;;;;3.53;3.10;;;;;;;1.32;60.88;99169.19;6253947;28;20647;-74
2022/03/23 07:23:14;;;;;;;4.67;3.70;;;;;;;1.51;59.41;99176.63;6236783;28;20756;-74
2022/03/23 07:26:16;;;;;;;5.03;4.00;;;;;;;1.69;58.90;99168.47;6227455;28;20236;-73
2022/03/23 07:29:18;;;;;;;6.33;4.20;;;;;;;1.91;57.61;99161.91;6241266;28;20276;-74
2022/03/23 07:32:20;;;;;;;4.93;4.17;;;;;;;2.16;57.43;99172.66;6253795;28;20249;-74
2022/03/23 07:35:23;;;;;;;6.63;3.77;;;;;;;2.46;56.38;99171.09;6253765;28;20219;-73
2022/03/23 07:38:24;;;;;;;5.87;4.30;;;;;;;2.82;55.57;99166.69;6234953;28;20234;-73
2022/03/23 07:41:27;;;;;;;5.47;4.00;;;;;;;3.24;53.37;99156.91;6235483;28;20242;-73
2022/03/23 07:44:32;;;;;;;5.37;4.30;;;;;;;3.66;53.24;99157.47;6227794;28;20600;-73
2022/03/23 07:47:34;;;;;;;5.80;4.30;;;;;;;4.20;50.34;99152.31;6233829;28;20237;-73
2022/03/23 07:50:36;;;;;;;6.43;4.00;;;;;;;4.72;49.97;99156.75;6234832;28;20224;-74
2022/03/23 07:53:38;;;;;;;6.93;4.63;;;;;;;5.26;47.86;99154.91;6252539;28;20223;-74
2022/03/23 07:56:41;;;;;;;7.37;4.53;;;;;;;5.82;45.75;99158.09;6253377;28;20603;-74
2022/03/23 07:59:43;;;;;;;7.03;4.57;;;;;;;6.42;44.62;99147.03;6253041;28;20228;-73
2022/03/23 08:02:45;;;;;;;10.07;5.17;;;;;;;6.99;43.24;99138.50;6230857;28;20242;-74
2022/03/23 08:05:48;;;;;;;8.47;5.37;;;;;;;7.57;41.26;99145.66;6227666;28;20268;-74
2022/03/23 08:08:50;;;;;;;13.53;5.20;;;;;;;8.06;41.32;99145.13;6235165;28;20691;-74
2022/03/23 08:11:52;;;;;;;6.57;5.40;;;;;;;8.62;40.73;99146.84;6251816;28;20819;-73
2022/03/23 08:14:54;;;;;;;7.40;5.63;;;;;;;9.20;39.72;99146.53;6251777;28;20226;-74
2022/03/23 08:17:56;;;;;;;7.17;6.10;;;;;;;9.84;37.05;99148.44;6201444;28;20702;-73
2022/03/23 08:21:00;;;;;;;8.73;5.60;;;;;;;10.45;36.50;99134.56;6240479;28;20232;-74
2022/03/23 08:24:02;;;;;;;9.83;6.10;;;;;;;11.00;36.42;99138.34;6220403;28;20306;-73
2022/03/23 08:27:04;;;;;;;10.43;6.97;;;;;;;11.68;34.30;99133.34;6232529;28;20228;-73
2022/03/23 08:30:07;;;;;;;9.47;6.47;;;;;;;12.19;33.34;99134.56;6250389;28;20211;-73
2022/03/23 08:33:10;;;;;;;6.93;5.80;;;;;;;12.70;31.79;99128.63;6252822;28;20202;-74
2022/03/23 08:36:12;;;;;;;8.73;6.47;;;;;;;13.24;31.22;99132.09;6252077;28;20225;-74
2022/03/23 08:39:14;;;;;;;8.13;7.20;;;;;;;13.65;27.68;99129.25;6251734;28;20281;-74
2022/03/23 08:42:16;;;;;;;7.37;5.77;;;;;;;13.95;28.05;99127.09;6252068;28;20910;-74
2022/03/23 08:45:18;;;;;;;9.73;6.17;;;;;;;14.49;27.71;99125.91;6229097;28;20231;-73
2022/03/23 08:48:21;;;;;;;8.67;6.47;;;;;;;14.94;27.03;99122.50;6251639;28;20229;-74
2022/03/23 08:51:23;;;;;;;8.83;6.33;;;;;;;15.13;24.66;99120.16;6253170;28;20860;-74
2022/03/23 08:54:25;;;;;;;8.17;6.27;;;;;;;15.40;24.47;99114.53;6212504;28;20593;-75
2022/03/23 08:57:27;;;;;;;10.77;6.63;;;;;;;15.44;23.25;99116.00;6234249;28;20238;-73
2022/03/23 09:00:29;;;;;;;12.53;6.67;;;;;;;15.56;22.70;99113.38;6227159;28;20704;-73
2022/03/23 09:03:32;;;;;;;8.20;6.30;;;;;;;15.41;23.32;99110.91;6222966;28;20236;-73
2022/03/23 09:06:35;;;;;;;9.80;6.53;;;;;;;15.81;24.76;99110.47;6226762;28;20235;-74
2022/03/23 09:09:37;;;;;;;12.83;7.73;;;;;;;15.96;23.77;99111.94;6242204;28;20239;-74
2022/03/23 09:12:57;;;;;;;7.60;6.20;;;;;;;16.06;22.49;99114.72;6251455;28;20235;-74
2022/03/23 09:16:00;;;;;;;8.47;6.67;;;;;;;16.22;22.66;99116.03;6242054;28;20232;-74
2022/03/23 09:19:02;;;;;;;10.40;7.00;;;;;;;16.91;22.99;99105.91;6217246;28;20694;-75
2022/03/23 09:22:04;;;;;;;7.30;6.33;;;;;;;17.10;21.81;99107.88;6251792;28;20234;-74
2022/03/23 09:25:12;;;;;;;7.50;6.60;;;;;;;17.30;21.75;99100.84;6229403;28;20347;-74
2022/03/23 09:28:14;;;;;;;38.10;8.97;;;;;;;17.23;20.92;99097.03;6235613;28;20552;-74
2022/03/23 09:31:16;;;;;;;13.27;7.53;;;;;;;17.19;21.97;99104.44;6228657;28;20232;-74
2022/03/23 09:34:18;;;;;;;8.73;6.37;;;;;;;17.63;21.71;99105.16;6222973;28;20238;-74
2022/03/23 09:40:43;;;;;;;9.57;7.17;;;;;;;17.92;21.10;99092.78;6252735;28;20227;-74
2022/03/23 09:43:46;;;;;;;17.47;8.23;;;;;;;18.11;20.95;99085.81;6235109;28;20716;-74
2022/03/23 09:46:48;;;;;;;14.03;7.50;;;;;;;18.21;21.19;99086.69;6227265;28;20770;-74
2022/03/23 09:49:50;;;;;;;8.87;6.90;;;;;;;18.52;20.23;99076.75;6221283;28;20238;-73
2022/03/23 09:52:52;;;;;;;9.53;7.10;;;;;;;18.80;20.78;99078.63;6255882;28;20238;-74
2022/03/23 09:55:54;;;;;;;10.53;7.30;;;;;;;18.76;19.90;99071.91;6237657;28;20231;-74
2022/03/23 09:58:56;;;;;;;12.17;7.63;;;;;;;18.91;19.86;99075.81;6237211;28;20230;-73
2022/03/23 10:02:01;;;;;;;8.90;7.37;;;;;;;18.72;19.30;99070.47;6254989;28;20735;-74
2022/03/23 10:05:25;;;;;;;11.23;7.40;;;;;;;18.28;18.92;99063.78;6237729;28;20362;-74
2022/03/23 10:08:48;;;;;;;9.87;7.53;;;;;;;18.15;20.07;99064.03;6236758;28;20725;-73
2022/03/23 10:12:15;;;;;;;37.67;11.83;;;;;;;18.96;21.12;99064.72;6255172;28;20235;-73
2022/03/23 10:15:55;;;;;;;23.77;8.47;;;;;;;18.99;18.19;99059.91;6251652;28;20231;-75
2022/03/23 10:18:57;;;;;;;19.77;7.83;;;;;;;18.61;18.75;99057.25;6221962;28;20687;-75
2022/03/23 10:22:08;;;;;;;12.83;8.33;;;;;;;18.31;19.01;99059.00;6229836;28;20224;-75
2022/03/23 10:25:10;;;;;;;8.20;7.00;;;;;;;18.70;18.87;99049.22;6254066;28;20235;-75
2022/03/23 10:28:14;;;;;;;8.20;7.20;;;;;;;19.10;18.51;99048.19;6254263;28;20227;-75
2022/03/23 10:31:18;;;;;;;8.10;6.50;;;;;;;19.45;18.85;99039.53;6237982;28;20679;-75
2022/03/23 10:34:20;;;;;;;9.20;7.00;;;;;;;20.06;18.74;99047.06;6252950;28;20227;-76
2022/03/23 10:37:34;;;;;;;9.63;6.93;;;;;;;20.59;17.55;99042.63;6213170;28;20243;-75
2022/03/23 10:40:37;;;;;;;53.30;10.10;;;;;;;20.00;17.52;99035.06;6213173;28;20236;-74
2022/03/23 10:43:41;;;;;;;11.07;7.00;;;;;;;19.99;18.11;99035.22;6231140;28;20253;-75
2022/03/23 10:46:43;;;;;;;8.83;6.80;;;;;;;19.71;18.57;99031.69;6255578;28;20231;-74
2022/03/23 10:49:45;;;;;;;10.40;7.23;;;;;;;19.64;18.24;99023.44;6228126;28;20235;-75
2022/03/23 10:52:52;;;;;;;8.67;7.73;;;;;;;20.43;19.02;99012.97;6236906;28;20250;-75
2022/03/23 10:55:54;;;;;;;8.27;7.47;;;;;;;20.31;17.68;99008.78;6256497;28;20234;-75
2022/03/23 10:59:23;;;;;;;9.00;7.33;;;;;;;20.37;18.57;99012.72;6237209;28;20215;-75
2022/03/23 11:02:25;;;;;;;9.90;7.30;;;;;;;19.86;17.94;99004.25;6237163;28;21013;-75
2022/03/23 11:05:33;;;;;;;9.30;7.17;;;;;;;20.19;18.07;99000.13;6254351;28;20812;-75
2022/03/23 11:08:35;;;;;;;9.37;7.53;;;;;;;20.37;17.43;98996.63;6235845;28;20622;-74
2022/03/23 11:18:35;;;;;;;9.80;8.10;;;;;;;20.36;18.02;98984.25;6229202;28;22831;-76
2022/03/23 11:22:05;;;;;;;10.70;8.87;;;;;;;20.53;17.93;98970.81;6252099;28;20245;-75
2022/03/23 11:25:07;;;;;;;9.97;7.93;;;;;;;20.92;17.84;98970.44;6253575;28;20277;-75
2022/03/23 11:28:11;;;;;;;10.60;8.80;;;;;;;20.79;17.42;98964.63;6222584;28;20227;-75
2022/03/23 11:31:18;;;;;;;9.67;7.53;;;;;;;20.65;18.01;98967.91;6203818;28;20228;-75
2022/03/23 11:34:23;;;;;;;8.70;7.37;;;;;;;21.04;17.98;98957.63;6211889;28;20255;-75
2022/03/23 11:37:29;;;;;;;8.00;6.73;;;;;;;21.66;17.48;98951.91;6239387;28;20314;-75
2022/03/23 11:40:31;;;;;;;31.90;10.83;;;;;;;21.30;17.42;98948.56;6236073;28;20690;-75
2022/03/23 11:43:34;;;;;;;12.73;8.90;;;;;;;21.04;18.63;98942.34;6234975;28;20223;-75
2022/03/23 11:46:55;;;;;;;15.27;8.73;;;;;;;21.82;18.17;98939.53;6241002;28;20250;-75
2022/03/23 11:50:06;;;;;;;11.53;8.03;;;;;;;21.95;18.01;98942.63;6235507;28;20235;-75
2022/03/23 11:53:32;;;;;;;12.50;8.10;;;;;;;22.14;17.54;98930.75;6242680;28;20231;-75
2022/03/23 11:56:58;;;;;;;15.90;8.53;;;;;;;21.80;17.79;98928.94;6210671;28;20247;-75
2022/03/23 12:00:00;;;;;;;9.70;7.87;;;;;;;21.78;17.17;98922.91;6210849;28;20240;-75
2022/03/23 12:03:03;;;;;;;12.87;7.80;;;;;;;21.66;17.10;98919.66;6251746;28;20243;-75
2022/03/23 12:06:09;;;;;;;10.50;8.40;;;;;;;20.52;17.51;98923.53;6235120;28;20245;-75
2022/03/23 12:09:33;;;;;;;7.90;6.83;;;;;;;20.92;17.55;98912.25;6235529;28;20216;-74
2022/03/23 12:12:50;;;;;;;9.43;6.70;;;;;;;21.78;18.18;98901.38;6210188;28;20581;-75
2022/03/23 12:15:59;;;;;;;9.67;7.77;;;;;;;21.41;17.26;98887.50;6227029;28;20361;-76
2022/03/23 12:19:04;;;;;;;9.90;7.53;;;;;;;21.32;18.25;98892.84;6211655;28;20603;-74
2022/03/23 12:22:06;;;;;;;9.73;7.23;;;;;;;21.46;16.94;98874.44;6214748;28;20311;-75
2022/03/23 12:25:31;;;;;;;8.30;7.23;;;;;;;21.97;17.42;98884.97;6233510;28;20245;-74
2022/03/23 12:28:55;;;;;;;9.23;7.20;;;;;;;22.32;16.70;98880.34;6234477;28;20510;-75
2022/03/23 12:32:06;;;;;;;8.17;6.17;;;;;;;22.40;16.43;98873.09;6235103;28;20219;-75
2022/03/23 12:35:08;;;;;;;7.93;6.33;;;;;;;23.03;15.94;98874.22;6233926;28;20263;-75
2022/03/23 12:38:19;;;;;;;7.40;6.17;;;;;;;23.69;15.81;98864.84;6251907;28;20227;-73
2022/03/23 12:41:20;;;;;;;7.73;6.63;;;;;;;23.80;15.29;98878.75;6250068;28;20230;-75
2022/03/23 12:44:34;;;;;;;9.30;7.77;;;;;;;23.46;15.15;98864.75;6227332;28;20231;-74
2022/03/23 12:47:39;;;;;;;7.30;6.57;;;;;;;22.94;15.77;98862.63;6232760;28;20231;-75
2022/03/23 13:00:49;;;;;;;11.40;6.87;;;;;;;23.95;14.95;98843.78;6250500;28;20432;-74
2022/03/23 13:03:53;;;;;;;8.63;5.90;;;;;;;24.11;14.87;98842.81;6218791;28;20266;-75
2022/03/23 13:06:56;;;;;;;7.30;6.50;;;;;;;23.88;14.48;98832.03;6214976;28;20240;-74
2022/03/23 13:10:10;;;;;;;8.77;6.20;;;;;;;23.15;14.26;98833.28;6237174;28;20243;-75
2022/03/23 13:13:12;;;;;;;7.53;5.73;;;;;;;22.90;14.63;98828.13;6234036;28;20598;-75
2022/03/23 13:16:27;;;;;;;7.97;6.17;;;;;;;23.24;14.50;98815.22;6232665;28;20280;-75
2022/03/23 13:19:30;;;;;;;6.80;6.10;;;;;;;23.55;14.41;98817.94;6234597;28;20227;-75
2022/03/23 13:22:33;;;;;;;7.57;6.30;;;;;;;24.32;14.05;98818.72;6250906;28;20231;-75
2022/03/23 13:25:36;;;;;;;7.27;5.63;;;;;;;25.69;13.19;98805.47;6230823;28;20227;-75
2022/03/23 13:28:44;;;;;;;6.60;5.93;;;;;;;25.88;13.26;98809.41;6231736;28;20238;-74
2022/03/23 13:31:46;;;;;;;7.57;5.60;;;;;;;27.41;12.65;98802.19;6225617;28;20246;-75
2022/03/23 13:34:56;;;;;;;8.65;5.97;;;;;;;29.24;11.05;98801.66;6230157;28;20239;-76
2022/03/23 13:38:19;;;;;;;6.80;6.10;;;;;;;30.97;10.51;98786.56;6256274;28;20231;-76
2022/03/23 13:44:57;;;;;;;8.02;5.88;;;;;;;32.18;8.75;98781.84;6218859;28;20236;-75
2022/03/23 13:47:59;;;;;;;11.98;6.60;;;;;;;32.98;8.82;98784.84;6226235;28;20244;-75
2022/03/23 13:51:01;;;;;;;11.18;5.07;;;;;;;33.26;8.03;98775.06;6256544;28;21037;-75
2022/03/23 13:54:06;;;;;;;8.80;6.15;;;;;;;33.99;8.27;98761.41;6218451;28;20233;-74
2022/03/23 13:57:09;;;;;;;13.02;6.07;;;;;;;33.81;8.05;98766.28;6237723;28;20516;-75
2022/03/23 14:00:23;;;;;;;10.65;5.97;;;;;;;33.76;8.19;98771.66;6239992;28;20349;-76
2022/03/23 14:03:38;;;;;;;6.38;5.78;;;;;;;34.12;7.49;98757.53;6222650;28;20601;-75
2022/03/23 14:06:46;;;;;;;6.53;5.78;;;;;;;31.19;8.81;98760.53;6232033;28;20554;-76
2022/03/23 14:09:48;;;;;;;9.77;6.15;;;;;;;28.83;10.64;98761.22;6250785;28;20259;-75
2022/03/23 14:12:51;;;;;;;7.60;6.50;;;;;;;29.11;10.22;98747.31;6233192;28;20712;-75
2022/03/23 14:16:09;;;;;;;7.05;5.85;;;;;;;29.86;9.92;98746.47;6247761;28;20284;-75
2022/03/23 14:19:11;;;;;;;6.88;5.65;;;;;;;30.12;9.74;98739.19;6229303;28;20228;-75
2022/03/23 14:22:24;;;;;;;7.80;6.00;;;;;;;26.99;11.46;98732.78;6231057;28;20232;-75
2022/03/23 14:25:27;;;;;;;7.20;6.23;;;;;;;24.74;13.08;98733.59;6213162;28;20315;-77
2022/03/23 14:28:30;;;;;;;8.70;6.47;;;;;;;24.16;13.26;98735.19;6218946;28;20318;-75
2022/03/23 14:31:40;;;;;;;7.67;6.57;;;;;;;22.92;14.46;98727.34;6254915;28;20231;-74
2022/03/23 14:34:47;;;;;;;10.03;6.00;;;;;;;21.30;15.45;98725.66;6254853;28;20572;-75
2022/03/23 14:37:54;;;;;;;8.70;6.03;;;;;;;20.78;15.84;98726.81;6213825;28;20247;-75
2022/03/23 14:40:58;;;;;;;7.13;6.33;;;;;;;20.78;16.79;98721.47;6211680;28;20633;-75
2022/03/23 14:44:00;;;;;;;7.43;5.90;;;;;;;20.67;16.32;98719.91;6220387;28;20632;-75
2022/03/23 14:47:06;;;;;;;7.80;6.50;;;;;;;20.22;17.08;98725.53;6246646;28;20235;-75
2022/03/23 14:50:16;;;;;;;9.47;5.87;;;;;;;19.79;16.84;98716.53;6241403;28;20258;-74
2022/03/23 14:53:20;;;;;;;8.87;6.17;;;;;;;19.38;17.33;98717.13;6249594;28;20227;-75
2022/03/23 14:56:22;;;;;;;7.57;5.60;;;;;;;19.34;17.98;98707.75;6258326;28;20258;-75
2022/03/23 14:59:26;;;;;;;9.50;6.10;;;;;;;19.14;17.89;98709.72;6258980;28;20211;-76
2022/03/23 15:02:31;;;;;;;9.50;5.50;;;;;;;18.88;17.76;98709.59;6241909;28;20230;-75
2022/03/23 15:16:00;;;;;;;7.23;6.20;;;;;;;18.30;18.60;98692.97;6229717;28;20258;-75
2022/03/23 15:19:03;;;;;;;8.77;6.03;;;;;;;18.22;18.82;98688.38;6236062;28;20573;-75